Time;durP1;ratioP1;P1;durP2;ratioP2;P2;SDS_P1;SDS_P2;PMS_P1;PMS_P2;Temp;Humidity;BMP_temperature;BMP_pressure;BME280_temperature;BME280_humidity;BME280_pressure;Samples;Min_cycle;Max_cycle;Signal;HPM_P1;HPM_P2
2023/09/29 00:01:33;;;;;;;13.50;10.83;;;;;;;;;;5081158;28;20506;-76
2023/09/29 00:04:04;;;;;;;18.53;10.77;;;;;;;;;;5068397;28;20512;-76
2023/09/29 00:06:32;;;;;;;12.20;10.00;;;;;;;;;;5077132;28;20979;-76
2023/09/29 00:09:00;;;;;;;10.63;9.63;;;;;;;;;;5072896;28;20871;-76
2023/09/29 00:11:29;;;;;;;15.47;10.50;;;;;;;;;;5072853;28;20532;-76
2023/09/29 00:13:56;;;;;;;13.10;10.77;;;;;;;;;;5072992;28;20969;-76
2023/09/29 00:16:23;;;;;;;15.03;10.73;;;;;;;;;;5072833;28;20981;-76
2023/09/29 00:18:50;;;;;;;13.50;11.03;;;;;;;;;;5083066;28;20491;-76
2023/09/29 00:21:18;;;;;;;11.67;9.00;;;;;;;;;;5064658;28;20476;-76
2023/09/29 00:23:45;;;;;;;12.13;9.90;;;;;;;;;;5079029;28;20458;-76
2023/09/29 00:26:13;;;;;;;12.60;9.77;;;;;;;;;;5081204;28;20958;-77
2023/09/29 00:28:40;;;;;;;12.43;9.57;;;;;;;;;;5080155;28;20541;-76
2023/09/29 00:31:08;;;;;;;12.50;9.27;;;;;;;;;;5069632;28;20509;-76
2023/09/29 00:33:36;;;;;;;13.10;10.70;;;;;;;;;;5059590;28;20975;-77
2023/09/29 00:36:03;;;;;;;10.60;8.40;;;;;;;;;;5068505;28;20520;-76
2023/09/29 00:38:33;;;;;;;12.50;9.97;;;;;;;;;;5076720;28;20939;-76
2023/09/29 00:41:00;;;;;;;14.13;10.40;;;;;;;;;;5084454;28;20981;-76
2023/09/29 00:43:28;;;;;;;12.00;9.77;;;;;;;;;;5084400;28;20446;-76
2023/09/29 00:45:55;;;;;;;12.40;9.60;;;;;;;;;;5073436;28;20871;-76
2023/09/29 00:48:23;;;;;;;10.13;9.23;;;;;;;;;;5074454;28;20464;-76
2023/09/29 00:50:50;;;;;;;10.13;9.10;;;;;;;;;;5077319;28;20516;-76
2023/09/29 00:53:19;;;;;;;13.83;9.77;;;;;;;;;;5072574;28;20455;-76
2023/09/29 00:55:48;;;;;;;11.70;10.00;;;;;;;;;;5081633;28;20458;-76
2023/09/29 00:58:17;;;;;;;14.60;10.17;;;;;;;;;;5057970;28;20506;-76
2023/09/29 01:00:45;;;;;;;13.00;9.37;;;;;;;;;;5072349;28;20855;-77
2023/09/29 01:03:14;;;;;;;14.77;8.63;;;;;;;;;;5075882;28;20452;-77
2023/09/29 01:05:42;;;;;;;11.60;9.93;;;;;;;;;;5070712;28;20479;-76
2023/09/29 01:08:12;;;;;;;11.97;9.10;;;;;;;;;;5084162;28;20628;-77
2023/09/29 01:10:39;;;;;;;15.07;11.37;;;;;;;;;;5083659;28;20477;-77
2023/09/29 01:13:08;;;;;;;12.93;10.50;;;;;;;;;;5083633;28;20833;-77
2023/09/29 01:15:36;;;;;;;16.30;10.53;;;;;;;;;;5084693;28;20459;-76
2023/09/29 01:18:03;;;;;;;14.03;10.43;;;;;;;;;;5076221;28;20498;-77
2023/09/29 01:20:31;;;;;;;13.33;9.53;;;;;;;;;;5076165;28;20479;-77
2023/09/29 01:23:00;;;;;;;14.47;9.70;;;;;;;;;;5084551;28;20974;-77
2023/09/29 01:25:28;;;;;;;11.93;9.20;;;;;;;;;;5077409;28;20464;-76
2023/09/29 01:27:55;;;;;;;10.80;9.70;;;;;;;;;;5083530;28;20451;-77
2023/09/29 01:30:24;;;;;;;13.80;11.20;;;;;;;;;;5075710;28;20471;-76
2023/09/29 01:32:52;;;;;;;15.90;10.90;;;;;;;;;;5086778;28;20451;-77
2023/09/29 01:35:23;;;;;;;13.60;10.10;;;;;;;;;;5081685;28;20467;-76
2023/09/29 01:37:50;;;;;;;13.67;10.40;;;;;;;;;;5075967;28;20479;-76
2023/09/29 01:40:20;;;;;;;13.00;11.07;;;;;;;;;;5081608;28;20868;-76
2023/09/29 01:42:49;;;;;;;12.23;10.83;;;;;;;;;;5069221;28;20612;-76
2023/09/29 01:45:17;;;;;;;15.30;11.30;;;;;;;;;;5084080;28;20877;-76
2023/09/29 01:47:45;;;;;;;12.33;11.03;;;;;;;;;;5083964;28;20558;-77
2023/09/29 01:50:16;;;;;;;12.90;11.57;;;;;;;;;;5075255;28;20483;-77
2023/09/29 01:52:43;;;;;;;15.53;12.30;;;;;;;;;;5085188;28;20543;-76
2023/09/29 01:55:11;;;;;;;14.53;9.60;;;;;;;;;;5082666;28;20451;-76
2023/09/29 01:57:39;;;;;;;14.83;10.23;;;;;;;;;;5083846;28;20459;-76
2023/09/29 02:00:15;;;;;;;11.17;10.03;;;;;;;;;;5079249;28;20865;-77
2023/09/29 02:02:43;;;;;;;16.63;11.13;;;;;;;;;;5086511;28;20451;-77
2023/09/29 02:05:11;;;;;;;14.37;11.47;;;;;;;;;;5075332;28;20459;-76
2023/09/29 02:07:39;;;;;;;12.10;10.80;;;;;;;;;;5075790;28;20826;-76
2023/09/29 02:10:07;;;;;;;16.03;11.80;;;;;;;;;;5087081;28;20872;-76
2023/09/29 02:12:35;;;;;;;14.73;11.10;;;;;;;;;;5086933;28;20450;-76
2023/09/29 02:15:06;;;;;;;10.97;9.87;;;;;;;;;;5075738;28;20451;-76
2023/09/29 02:17:36;;;;;;;14.57;10.50;;;;;;;;;;5083287;28;20457;-76
2023/09/29 02:20:18;;;;;;;12.57;10.07;;;;;;;;;;5063485;28;20507;-76
2023/09/29 02:22:45;;;;;;;16.40;11.47;;;;;;;;;;5065639;28;20971;-76
2023/09/29 02:25:15;;;;;;;15.43;10.50;;;;;;;;;;5080889;28;20451;-76
2023/09/29 02:27:42;;;;;;;19.00;9.67;;;;;;;;;;5075942;28;20466;-76
2023/09/29 02:30:11;;;;;;;12.37;10.83;;;;;;;;;;5082096;28;20962;-77
2023/09/29 02:32:41;;;;;;;15.27;12.10;;;;;;;;;;5083581;28;20464;-77
2023/09/29 02:35:09;;;;;;;19.43;14.87;;;;;;;;;;5073882;28;20525;-76
2023/09/29 02:37:37;;;;;;;14.27;12.77;;;;;;;;;;5075478;28;20445;-76
2023/09/29 02:40:05;;;;;;;15.83;12.43;;;;;;;;;;5082920;28;20926;-76
2023/09/29 02:42:32;;;;;;;12.73;10.70;;;;;;;;;;5083142;28;20452;-76
2023/09/29 02:44:59;;;;;;;18.47;13.70;;;;;;;;;;5083068;28;20827;-77
2023/09/29 02:47:27;;;;;;;16.10;11.80;;;;;;;;;;5075891;28;20464;-76
2023/09/29 02:49:55;;;;;;;14.80;11.20;;;;;;;;;;5056831;28;20824;-76
2023/09/29 02:52:22;;;;;;;11.40;9.53;;;;;;;;;;5076258;28;20460;-76
2023/09/29 02:54:49;;;;;;;12.03;9.00;;;;;;;;;;5056254;28;20463;-76
2023/09/29 02:57:17;;;;;;;14.47;9.43;;;;;;;;;;5082874;28;20976;-76
2023/09/29 02:59:46;;;;;;;15.67;9.10;;;;;;;;;;5056314;28;20489;-76
2023/09/29 03:02:13;;;;;;;10.60;8.50;;;;;;;;;;5072797;28;20485;-76
2023/09/29 03:04:40;;;;;;;11.73;9.50;;;;;;;;;;5077609;28;20463;-77
2023/09/29 03:07:10;;;;;;;11.67;8.67;;;;;;;;;;5069073;28;20878;-76
2023/09/29 03:09:38;;;;;;;11.23;7.77;;;;;;;;;;5054176;28;20456;-76
2023/09/29 03:12:05;;;;;;;15.40;8.57;;;;;;;;;;5078255;28;20483;-77
2023/09/29 03:14:33;;;;;;;11.10;8.53;;;;;;;;;;5085882;28;20451;-76
2023/09/29 03:17:00;;;;;;;11.47;9.50;;;;;;;;;;5069187;28;20511;-77
2023/09/29 03:19:27;;;;;;;10.03;8.87;;;;;;;;;;5070019;28;20560;-77
2023/09/29 03:21:55;;;;;;;16.20;9.70;;;;;;;;;;5084888;28;20468;-77
2023/09/29 03:24:23;;;;;;;14.10;9.50;;;;;;;;;;5064628;28;20459;-77
2023/09/29 03:26:51;;;;;;;10.17;8.17;;;;;;;;;;5080726;28;20442;-76
2023/09/29 03:29:18;;;;;;;8.63;7.80;;;;;;;;;;5073907;28;20953;-76
2023/09/29 03:31:46;;;;;;;9.97;7.47;;;;;;;;;;5073706;28;20472;-77
2023/09/29 03:34:13;;;;;;;11.87;8.80;;;;;;;;;;5076635;28;20461;-77
2023/09/29 03:36:41;;;;;;;12.10;7.97;;;;;;;;;;5071407;28;20494;-76
2023/09/29 03:39:09;;;;;;;13.80;9.97;;;;;;;;;;5076480;28;21055;-77
2023/09/29 03:41:38;;;;;;;13.80;8.70;;;;;;;;;;5078809;28;20478;-78
2023/09/29 03:44:05;;;;;;;11.80;8.80;;;;;;;;;;5070038;28;20450;-77
2023/09/29 03:46:32;;;;;;;10.67;8.47;;;;;;;;;;5085350;28;20455;-76
2023/09/29 03:48:59;;;;;;;17.17;8.90;;;;;;;;;;5078589;28;20449;-76
2023/09/29 03:51:27;;;;;;;12.20;8.87;;;;;;;;;;5060119;28;20478;-76
2023/09/29 03:53:54;;;;;;;13.40;9.07;;;;;;;;;;5076049;28;20964;-76
2023/09/29 03:56:23;;;;;;;10.67;8.80;;;;;;;;;;5085084;28;20447;-77
2023/09/29 03:58:53;;;;;;;11.90;9.17;;;;;;;;;;5074412;28;20487;-77
2023/09/29 04:01:21;;;;;;;9.13;7.80;;;;;;;;;;5079167;28;20478;-77
2023/09/29 04:03:48;;;;;;;15.13;9.93;;;;;;;;;;5083295;28;20458;-76
2023/09/29 04:06:15;;;;;;;13.40;9.90;;;;;;;;;;5073072;28;20455;-76
2023/09/29 04:08:42;;;;;;;10.47;8.60;;;;;;;;;;5081555;28;20459;-77
2023/09/29 04:11:10;;;;;;;10.77;8.80;;;;;;;;;;5081330;28;20483;-77
2023/09/29 04:13:37;;;;;;;14.90;8.70;;;;;;;;;;5081198;28;20460;-77
2023/09/29 04:16:06;;;;;;;12.90;8.87;;;;;;;;;;5081444;28;20463;-76
2023/09/29 04:18:34;;;;;;;12.60;9.50;;;;;;;;;;5081265;28;20955;-77
2023/09/29 04:21:02;;;;;;;13.20;9.57;;;;;;;;;;5069402;28;20469;-77
2023/09/29 04:23:29;;;;;;;13.83;10.00;;;;;;;;;;5075994;28;20504;-76
2023/09/29 04:25:56;;;;;;;15.93;9.03;;;;;;;;;;5079192;28;20969;-77
2023/09/29 04:28:23;;;;;;;11.93;7.27;;;;;;;;;;5073992;28;20443;-76
2023/09/29 04:30:50;;;;;;;10.80;8.77;;;;;;;;;;5067695;28;20468;-76
2023/09/29 04:33:19;;;;;;;13.20;8.27;;;;;;;;;;5078803;28;20459;-77
2023/09/29 04:35:46;;;;;;;14.07;8.63;;;;;;;;;;5071307;28;20495;-76
2023/09/29 04:38:13;;;;;;;15.73;10.10;;;;;;;;;;5057803;28;20475;-76
2023/09/29 04:40:41;;;;;;;12.63;8.93;;;;;;;;;;5081168;28;20492;-77
2023/09/29 04:43:09;;;;;;;16.07;9.60;;;;;;;;;;5080174;28;20452;-76
2023/09/29 04:45:36;;;;;;;11.57;9.20;;;;;;;;;;5081063;28;20459;-77
2023/09/29 04:48:04;;;;;;;13.90;8.77;;;;;;;;;;5064090;28;20532;-76
2023/09/29 04:50:34;;;;;;;11.93;8.33;;;;;;;;;;5080829;28;20459;-76
2023/09/29 04:53:01;;;;;;;12.93;9.87;;;;;;;;;;5069066;28;20465;-77
2023/09/29 04:55:29;;;;;;;12.60;9.40;;;;;;;;;;5059485;28;20455;-77
2023/09/29 04:57:56;;;;;;;9.00;8.10;;;;;;;;;;5074902;28;20462;-76
2023/09/29 05:00:23;;;;;;;8.90;7.93;;;;;;;;;;5083992;28;20494;-76
2023/09/29 05:02:50;;;;;;;20.33;9.20;;;;;;;;;;5075887;28;21032;-76
2023/09/29 05:05:17;;;;;;;12.43;8.07;;;;;;;;;;5084357;28;20453;-76
2023/09/29 05:07:46;;;;;;;11.80;9.47;;;;;;;;;;5075301;28;20474;-76
2023/09/29 05:10:14;;;;;;;11.40;8.67;;;;;;;;;;5069928;28;20479;-76
2023/09/29 05:12:43;;;;;;;14.40;9.10;;;;;;;;;;5080073;28;20455;-76
2023/09/29 05:15:11;;;;;;;10.27;9.23;;;;;;;;;;5075557;28;20460;-76
2023/09/29 05:17:38;;;;;;;14.80;9.17;;;;;;;;;;5068419;28;20459;-76
2023/09/29 05:20:06;;;;;;;14.43;8.47;;;;;;;;;;5076708;28;20504;-76
2023/09/29 05:22:34;;;;;;;10.50;8.50;;;;;;;;;;5051484;28;20496;-76
2023/09/29 05:25:03;;;;;;;11.27;8.37;;;;;;;;;;5063377;28;20840;-76
2023/09/29 05:27:31;;;;;;;13.07;8.80;;;;;;;;;;5079991;28;20501;-76
2023/09/29 05:29:58;;;;;;;16.40;10.70;;;;;;;;;;5083057;28;20457;-76
2023/09/29 05:32:26;;;;;;;13.60;9.37;;;;;;;;;;5061412;28;20441;-76
2023/09/29 05:34:53;;;;;;;11.40;8.00;;;;;;;;;;5078555;28;20465;-76
2023/09/29 05:37:21;;;;;;;11.50;8.07;;;;;;;;;;5079789;28;20444;-76
2023/09/29 05:39:48;;;;;;;8.60;7.07;;;;;;;;;;5071214;28;21040;-76
2023/09/29 05:42:20;;;;;;;10.57;7.70;;;;;;;;;;5077190;28;20832;-76
2023/09/29 05:44:47;;;;;;;13.70;8.63;;;;;;;;;;5073561;28;20463;-76
2023/09/29 05:47:16;;;;;;;10.40;8.57;;;;;;;;;;5079564;28;20475;-76
2023/09/29 05:49:43;;;;;;;15.73;8.60;;;;;;;;;;5071607;28;20456;-76
2023/09/29 05:52:11;;;;;;;12.00;9.77;;;;;;;;;;5071306;28;20542;-76
2023/09/29 05:54:38;;;;;;;11.70;9.30;;;;;;;;;;5071139;28;20811;-76
2023/09/29 05:57:05;;;;;;;13.70;10.90;;;;;;;;;;5075662;28;20456;-76
2023/09/29 05:59:33;;;;;;;12.83;9.83;;;;;;;;;;5054214;28;20871;-76
2023/09/29 06:02:00;;;;;;;13.30;10.10;;;;;;;;;;5069585;28;20474;-76
2023/09/29 06:04:28;;;;;;;16.80;10.10;;;;;;;;;;5071163;28;20456;-76
2023/09/29 06:06:55;;;;;;;13.13;9.40;;;;;;;;;;5085916;28;20447;-76
2023/09/29 06:09:22;;;;;;;13.13;9.97;;;;;;;;;;5080031;28;20828;-76
2023/09/29 06:11:49;;;;;;;12.00;8.87;;;;;;;;;;5084953;28;20475;-76
2023/09/29 06:14:17;;;;;;;13.83;8.40;;;;;;;;;;5086345;28;20455;-76
2023/09/29 06:16:45;;;;;;;8.23;7.43;;;;;;;;;;5077072;28;20463;-76
2023/09/29 06:19:12;;;;;;;7.63;5.97;;;;;;;;;;5082647;28;20448;-76
2023/09/29 06:21:39;;;;;;;7.87;6.70;;;;;;;;;;5074449;28;20479;-76
2023/09/29 06:24:07;;;;;;;7.00;6.03;;;;;;;;;;5074729;28;20828;-76
2023/09/29 06:26:34;;;;;;;6.33;5.63;;;;;;;;;;5074485;28;20448;-76
2023/09/29 06:29:01;;;;;;;8.27;4.93;;;;;;;;;;5070730;28;20453;-75
2023/09/29 06:31:28;;;;;;;6.50;5.83;;;;;;;;;;5053901;28;20528;-76
2023/09/29 06:33:57;;;;;;;7.17;5.17;;;;;;;;;;5067837;28;20459;-75
2023/09/29 06:36:24;;;;;;;5.70;5.10;;;;;;;;;;5064303;28;20455;-75
2023/09/29 06:38:51;;;;;;;8.47;5.90;;;;;;;;;;5081135;28;20803;-75
2023/09/29 06:41:18;;;;;;;5.70;4.80;;;;;;;;;;5073600;28;20507;-77
2023/09/29 06:43:47;;;;;;;6.20;5.60;;;;;;;;;;5074057;28;20936;-76
2023/09/29 06:46:14;;;;;;;5.10;4.60;;;;;;;;;;5082554;28;20452;-76
2023/09/29 06:48:41;;;;;;;6.27;5.67;;;;;;;;;;5082969;28;20448;-76
2023/09/29 06:51:09;;;;;;;9.67;5.53;;;;;;;;;;5085705;28;20471;-77
2023/09/29 06:53:36;;;;;;;5.00;4.50;;;;;;;;;;5061037;28;20461;-76
2023/09/29 06:56:04;;;;;;;4.47;3.80;;;;;;;;;;5069890;28;20542;-76
2023/09/29 06:58:31;;;;;;;5.37;4.90;;;;;;;;;;5069684;28;20459;-76
2023/09/29 07:00:58;;;;;;;5.47;4.97;;;;;;;;;;5070579;28;20523;-75
2023/09/29 07:03:29;;;;;;;5.80;5.30;;;;;;;;;;5068630;28;20877;-75
2023/09/29 07:05:56;;;;;;;5.03;4.30;;;;;;;;;;5076360;28;20505;-75
2023/09/29 07:08:25;;;;;;;4.90;4.40;;;;;;;;;;5085256;28;20447;-76
2023/09/29 07:10:52;;;;;;;6.47;4.20;;;;;;;;;;5065563;28;20476;-76
2023/09/29 07:13:19;;;;;;;4.80;4.30;;;;;;;;;;5071180;28;20462;-75
2023/09/29 07:15:46;;;;;;;7.07;4.97;;;;;;;;;;5058002;28;20453;-75
2023/09/29 07:18:15;;;;;;;5.80;4.40;;;;;;;;;;5072004;28;20968;-76
2023/09/29 07:20:43;;;;;;;5.70;4.07;;;;;;;;;;5084045;28;20912;-76
2023/09/29 07:23:10;;;;;;;4.50;4.03;;;;;;;;;;5081794;28;20977;-75
2023/09/29 07:25:39;;;;;;;4.40;4.03;;;;;;;;;;5081601;28;20463;-75
2023/09/29 07:28:06;;;;;;;8.40;4.20;;;;;;;;;;5081670;28;20965;-76
2023/09/29 07:30:33;;;;;;;5.77;4.23;;;;;;;;;;5073448;28;20552;-75
2023/09/29 07:33:00;;;;;;;6.20;4.80;;;;;;;;;;5056686;28;20455;-75
2023/09/29 07:35:28;;;;;;;5.10;4.67;;;;;;;;;;5057532;28;20464;-75
2023/09/29 07:37:55;;;;;;;6.13;4.07;;;;;;;;;;5080554;28;20455;-75
2023/09/29 07:40:22;;;;;;;5.27;3.77;;;;;;;;;;5080957;28;20496;-76
2023/09/29 07:42:51;;;;;;;5.67;4.33;;;;;;;;;;5081388;28;20446;-76
2023/09/29 07:45:18;;;;;;;3.93;3.60;;;;;;;;;;5081485;28;20509;-76
2023/09/29 07:47:45;;;;;;;6.50;5.00;;;;;;;;;;5081247;28;20918;-76
2023/09/29 07:50:12;;;;;;;6.83;6.07;;;;;;;;;;5069530;28;20954;-76
2023/09/29 07:52:40;;;;;;;8.50;5.63;;;;;;;;;;5068131;28;20451;-76
2023/09/29 07:55:07;;;;;;;24.33;4.50;;;;;;;;;;5072318;28;20956;-76
2023/09/29 07:57:35;;;;;;;4.80;4.40;;;;;;;;;;5072560;28;20452;-76
2023/09/29 08:00:04;;;;;;;5.33;4.03;;;;;;;;;;5059601;28;20826;-75
2023/09/29 08:02:32;;;;;;;5.20;4.03;;;;;;;;;;5085112;28;20820;-75
2023/09/29 08:04:59;;;;;;;7.53;3.80;;;;;;;;;;5081764;28;20459;-75
2023/09/29 08:07:26;;;;;;;4.60;4.13;;;;;;;;;;5080960;28;20452;-75
2023/09/29 08:09:55;;;;;;;5.47;4.40;;;;;;;;;;5081080;28;20830;-75
2023/09/29 08:12:22;;;;;;;7.20;3.87;;;;;;;;;;5079075;28;20504;-76
2023/09/29 08:14:50;;;;;;;5.93;3.10;;;;;;;;;;5076157;28;20504;-76
2023/09/29 08:17:19;;;;;;;5.17;4.03;;;;;;;;;;5078826;28;20520;-76
2023/09/29 08:19:47;;;;;;;7.20;3.83;;;;;;;;;;5080468;28;20942;-75
2023/09/29 08:22:14;;;;;;;6.27;3.93;;;;;;;;;;5072216;28;20530;-76
2023/09/29 08:24:41;;;;;;;5.67;3.37;;;;;;;;;;5072038;28;20534;-76
2023/09/29 08:27:08;;;;;;;5.87;3.63;;;;;;;;;;5077694;28;20451;-76
2023/09/29 08:29:35;;;;;;;5.60;4.33;;;;;;;;;;5084314;28;20472;-76
2023/09/29 08:32:02;;;;;;;5.73;3.40;;;;;;;;;;5080217;28;20554;-76
2023/09/29 08:34:34;;;;;;;6.20;4.57;;;;;;;;;;5080713;28;20852;-76
2023/09/29 08:37:01;;;;;;;10.43;4.13;;;;;;;;;;5072114;28;20562;-77
2023/09/29 08:39:29;;;;;;;6.20;3.80;;;;;;;;;;5073708;28;20464;-76
2023/09/29 08:42:02;;;;;;;4.40;4.00;;;;;;;;;;5071392;28;20533;-77
2023/09/29 08:44:30;;;;;;;10.10;3.47;;;;;;;;;;5065190;28;20488;-77
2023/09/29 08:47:01;;;;;;;5.37;3.23;;;;;;;;;;5083152;28;20794;-77
2023/09/29 08:49:29;;;;;;;8.17;4.40;;;;;;;;;;5068502;28;20456;-77
2023/09/29 08:51:59;;;;;;;5.73;4.20;;;;;;;;;;5052608;28;20476;-77
2023/09/29 08:54:26;;;;;;;4.53;3.73;;;;;;;;;;5074011;28;20459;-77
2023/09/29 08:56:54;;;;;;;4.20;3.20;;;;;;;;;;5054407;28;20460;-76
2023/09/29 08:59:23;;;;;;;4.30;3.70;;;;;;;;;;5072592;28;20454;-76
2023/09/29 09:01:54;;;;;;;5.13;3.80;;;;;;;;;;5079778;28;20548;-76
2023/09/29 09:04:22;;;;;;;6.50;5.10;;;;;;;;;;5052127;28;20843;-76
2023/09/29 09:06:49;;;;;;;4.90;4.03;;;;;;;;;;5070299;28;20458;-77
2023/09/29 09:09:22;;;;;;;5.97;4.60;;;;;;;;;;5067027;28;20821;-76
2023/09/29 09:11:50;;;;;;;5.60;4.47;;;;;;;;;;5072098;28;20976;-77
2023/09/29 09:14:18;;;;;;;6.50;4.13;;;;;;;;;;5078167;28;20471;-77
2023/09/29 09:16:45;;;;;;;8.30;4.13;;;;;;;;;;5079040;28;20490;-76
2023/09/29 09:19:14;;;;;;;4.50;3.90;;;;;;;;;;5056626;28;20550;-77
2023/09/29 09:21:42;;;;;;;5.20;3.77;;;;;;;;;;5080012;28;20996;-76
2023/09/29 09:24:19;;;;;;;4.10;3.20;;;;;;;;;;5076220;28;20557;-76
2023/09/29 09:26:47;;;;;;;5.50;3.10;;;;;;;;;;5080875;28;20458;-76
2023/09/29 09:29:15;;;;;;;5.40;3.40;;;;;;;;;;5051968;28;20445;-77
2023/09/29 09:31:46;;;;;;;5.57;3.53;;;;;;;;;;5077771;28;20881;-76
2023/09/29 09:34:14;;;;;;;5.90;3.27;;;;;;;;;;5082708;28;20561;-76
2023/09/29 09:36:53;;;;;;;4.80;4.30;;;;;;;;;;5084638;28;20444;-77
2023/09/29 09:39:25;;;;;;;4.97;3.67;;;;;;;;;;5089471;28;20451;-76
2023/09/29 09:41:53;;;;;;;6.63;4.63;;;;;;;;;;5085921;28;20502;-76
2023/09/29 09:44:21;;;;;;;4.97;4.47;;;;;;;;;;5072880;28;20573;-76
2023/09/29 09:46:53;;;;;;;4.43;3.30;;;;;;;;;;5083705;28;20458;-76
2023/09/29 09:49:23;;;;;;;3.80;3.10;;;;;;;;;;5075343;28;20458;-77
2023/09/29 09:51:53;;;;;;;3.63;3.30;;;;;;;;;;5077523;28;20475;-77
2023/09/29 09:54:21;;;;;;;4.53;3.80;;;;;;;;;;5087324;28;20473;-76
2023/09/29 09:56:55;;;;;;;7.87;3.47;;;;;;;;;;5085341;28;20458;-77
2023/09/29 09:59:24;;;;;;;5.80;3.57;;;;;;;;;;5077079;28;20459;-77
2023/09/29 10:01:51;;;;;;;3.83;3.30;;;;;;;;;;5067349;28;21001;-77
2023/09/29 10:04:20;;;;;;;14.10;4.13;;;;;;;;;;5087108;28;20458;-77
2023/09/29 10:06:47;;;;;;;3.70;3.30;;;;;;;;;;5075883;28;20848;-77
2023/09/29 10:09:14;;;;;;;4.10;3.50;;;;;;;;;;5071762;28;20491;-76
2023/09/29 10:11:42;;;;;;;5.00;3.20;;;;;;;;;;5072663;28;20483;-76
2023/09/29 10:14:11;;;;;;;3.97;3.10;;;;;;;;;;5090470;28;20451;-77
2023/09/29 10:16:39;;;;;;;4.17;3.67;;;;;;;;;;5083132;28;20451;-77
2023/09/29 10:19:11;;;;;;;9.47;4.20;;;;;;;;;;5079096;28;20849;-77
2023/09/29 10:21:42;;;;;;;5.80;3.20;;;;;;;;;;5086062;28;20498;-77
2023/09/29 10:24:12;;;;;;;3.67;3.10;;;;;;;;;;5074565;28;20554;-76
2023/09/29 10:26:45;;;;;;;3.27;3.00;;;;;;;;;;5091356;28;20451;-77
2023/09/29 10:29:20;;;;;;;8.03;3.70;;;;;;;;;;5061876;28;20467;-77
2023/09/29 10:31:48;;;;;;;4.63;3.70;;;;;;;;;;5073859;28;20471;-77
2023/09/29 10:34:20;;;;;;;4.50;3.23;;;;;;;;;;5086238;28;20459;-77
2023/09/29 10:36:54;;;;;;;4.67;3.40;;;;;;;;;;5093118;28;20435;-76
2023/09/29 10:39:25;;;;;;;3.80;3.40;;;;;;;;;;5082690;28;20479;-76
2023/09/29 10:41:58;;;;;;;3.93;3.53;;;;;;;;;;5082789;28;20569;-76
2023/09/29 10:44:28;;;;;;;4.67;4.17;;;;;;;;;;5088678;28;20466;-76
2023/09/29 10:46:55;;;;;;;4.57;3.60;;;;;;;;;;5083977;28;20535;-77
2023/09/29 10:49:31;;;;;;;4.23;3.47;;;;;;;;;;5074335;28;20452;-76
2023/09/29 10:51:58;;;;;;;4.90;3.60;;;;;;;;;;5074322;28;20463;-76
2023/09/29 10:54:26;;;;;;;3.90;3.23;;;;;;;;;;5082646;28;20573;-78
2023/09/29 10:56:53;;;;;;;4.20;3.80;;;;;;;;;;5094486;28;20469;-80
2023/09/29 10:59:20;;;;;;;4.43;3.57;;;;;;;;;;5096075;28;20453;-80
2023/09/29 11:01:49;;;;;;;5.87;3.80;;;;;;;;;;5095463;28;20598;-81
2023/09/29 11:04:16;;;;;;;4.00;3.20;;;;;;;;;;5096183;28;20473;-81
2023/09/29 11:06:47;;;;;;;5.10;3.13;;;;;;;;;;5095951;28;20503;-80
2023/09/29 11:09:19;;;;;;;5.63;3.90;;;;;;;;;;5096342;28;20455;-81
2023/09/29 11:11:46;;;;;;;9.20;4.57;;;;;;;;;;5096222;28;20474;-80
2023/09/29 11:14:14;;;;;;;4.00;3.67;;;;;;;;;;5095866;28;20921;-81
2023/09/29 11:16:41;;;;;;;7.33;3.73;;;;;;;;;;5095599;28;20478;-81
2023/09/29 11:19:14;;;;;;;4.70;3.50;;;;;;;;;;5095169;28;20439;-81
2023/09/29 11:21:42;;;;;;;4.30;3.87;;;;;;;;;;5095598;28;20992;-81
2023/09/29 11:24:09;;;;;;;3.60;2.93;;;;;;;;;;5095530;28;20435;-81
2023/09/29 11:26:40;;;;;;;3.97;3.43;;;;;;;;;;5095598;28;20535;-82
2023/09/29 11:29:08;;;;;;;4.13;3.77;;;;;;;;;;5096914;28;20450;-82
2023/09/29 11:31:37;;;;;;;4.53;3.80;;;;;;;;;;5095883;28;20476;-81
2023/09/29 11:34:06;;;;;;;5.20;3.17;;;;;;;;;;5095939;28;20914;-81
2023/09/29 11:36:35;;;;;;;6.90;4.10;;;;;;;;;;5095244;28;20441;-80
2023/09/29 11:39:02;;;;;;;4.40;4.00;;;;;;;;;;5095317;28;20451;-81
2023/09/29 11:41:29;;;;;;;3.57;3.27;;;;;;;;;;5094869;28;20536;-81
2023/09/29 11:43:56;;;;;;;3.97;3.53;;;;;;;;;;5095079;28;20502;-81
2023/09/29 11:46:24;;;;;;;8.03;4.30;;;;;;;;;;5095259;28;20450;-82
2023/09/29 11:48:51;;;;;;;4.80;4.13;;;;;;;;;;5095667;28;20493;-80
2023/09/29 11:51:18;;;;;;;5.87;4.00;;;;;;;;;;5094636;28;20459;-81
2023/09/29 11:53:48;;;;;;;7.63;4.00;;;;;;;;;;5094469;28;20443;-81
2023/09/29 11:56:15;;;;;;;5.60;3.50;;;;;;;;;;5093975;28;20452;-81
2023/09/29 11:58:42;;;;;;;5.10;4.60;;;;;;;;;;5095210;28;20984;-81
2023/09/29 12:01:09;;;;;;;3.80;3.37;;;;;;;;;;5094358;28;20473;-80
2023/09/29 12:03:36;;;;;;;7.83;3.63;;;;;;;;;;5094669;28;20431;-82
2023/09/29 12:06:04;;;;;;;7.00;3.80;;;;;;;;;;5095623;28;20473;-82
2023/09/29 12:08:31;;;;;;;5.83;4.73;;;;;;;;;;5095249;28;20454;-80
2023/09/29 12:11:00;;;;;;;5.30;4.80;;;;;;;;;;5096128;28;20475;-80
2023/09/29 12:13:29;;;;;;;3.50;3.20;;;;;;;;;;5095538;28;20451;-80
2023/09/29 12:15:56;;;;;;;7.53;3.80;;;;;;;;;;5094646;28;21024;-80
2023/09/29 12:18:26;;;;;;;5.10;3.90;;;;;;;;;;5094371;28;20447;-81
2023/09/29 12:20:55;;;;;;;6.00;4.47;;;;;;;;;;5094423;28;20578;-80
2023/09/29 12:23:24;;;;;;;5.63;5.13;;;;;;;;;;5094114;28;20984;-80
2023/09/29 12:25:51;;;;;;;3.80;3.33;;;;;;;;;;5094111;28;20795;-80
2023/09/29 12:28:20;;;;;;;5.40;3.53;;;;;;;;;;5093962;28;20465;-80
2023/09/29 12:30:47;;;;;;;4.13;3.73;;;;;;;;;;5093709;28;20463;-81
2023/09/29 12:33:14;;;;;;;9.17;4.10;;;;;;;;;;5094585;28;20442;-81
2023/09/29 12:35:41;;;;;;;5.83;4.37;;;;;;;;;;5094130;28;20447;-81
2023/09/29 12:38:09;;;;;;;6.80;3.63;;;;;;;;;;5094082;28;20901;-81
2023/09/29 12:40:37;;;;;;;7.50;4.37;;;;;;;;;;5094164;28;20469;-81
2023/09/29 12:43:04;;;;;;;5.70;4.30;;;;;;;;;;5094193;28;20551;-81
2023/09/29 12:45:32;;;;;;;4.23;3.43;;;;;;;;;;5093975;28;20462;-81
2023/09/29 12:48:00;;;;;;;7.57;4.60;;;;;;;;;;5094548;28;20447;-81
2023/09/29 12:50:27;;;;;;;4.40;4.00;;;;;;;;;;5094125;28;20455;-81
2023/09/29 12:52:54;;;;;;;6.40;4.97;;;;;;;;;;5094235;28;20514;-80
2023/09/29 12:55:22;;;;;;;6.10;4.53;;;;;;;;;;5093893;28;20450;-78
2023/09/29 12:57:52;;;;;;;6.00;3.80;;;;;;;;;;5094156;28;20461;-80
2023/09/29 13:00:19;;;;;;;9.33;3.30;;;;;;;;;;5093941;28;20470;-81
2023/09/29 13:02:51;;;;;;;5.60;4.90;;;;;;;;;;5094150;28;20494;-80
2023/09/29 13:05:18;;;;;;;13.13;5.20;;;;;;;;;;5093810;28;20451;-80
2023/09/29 13:07:46;;;;;;;5.20;3.37;;;;;;;;;;5094952;28;20807;-81
2023/09/29 13:10:14;;;;;;;4.43;3.80;;;;;;;;;;5097601;28;20536;-81
2023/09/29 13:12:41;;;;;;;7.40;4.30;;;;;;;;;;5098155;28;20562;-80
2023/09/29 13:15:08;;;;;;;4.87;3.43;;;;;;;;;;5098041;28;20828;-81
2023/09/29 13:17:36;;;;;;;3.53;3.10;;;;;;;;;;5098333;28;20455;-80
2023/09/29 13:20:06;;;;;;;3.97;3.43;;;;;;;;;;5098466;28;20482;-81
2023/09/29 13:22:33;;;;;;;7.73;4.63;;;;;;;;;;5097904;28;20478;-80
2023/09/29 13:25:00;;;;;;;5.17;3.80;;;;;;;;;;5098092;28;20435;-81
2023/09/29 13:27:27;;;;;;;9.60;4.50;;;;;;;;;;5097923;28;20906;-80
2023/09/29 13:29:54;;;;;;;4.13;3.53;;;;;;;;;;5097951;28;20446;-80
2023/09/29 13:32:21;;;;;;;6.17;3.30;;;;;;;;;;5097895;28;20541;-81
2023/09/29 13:34:48;;;;;;;5.43;3.17;;;;;;;;;;5098019;28;20569;-80
2023/09/29 13:37:18;;;;;;;3.17;2.87;;;;;;;;;;5098490;28;20874;-80
2023/09/29 13:39:45;;;;;;;4.47;2.97;;;;;;;;;;5098157;28;20503;-80
2023/09/29 13:42:13;;;;;;;4.33;2.47;;;;;;;;;;5097528;28;20834;-80
2023/09/29 13:44:40;;;;;;;5.73;4.30;;;;;;;;;;5098069;28;20959;-80
2023/09/29 13:47:08;;;;;;;6.00;3.43;;;;;;;;;;5097871;28;20554;-80
2023/09/29 13:49:35;;;;;;;4.90;4.17;;;;;;;;;;5097849;28;21008;-81
2023/09/29 13:52:02;;;;;;;9.43;3.67;;;;;;;;;;5097563;28;20839;-80
2023/09/29 13:54:31;;;;;;;4.67;3.73;;;;;;;;;;5097183;28;20802;-81
2023/09/29 13:56:58;;;;;;;5.50;3.93;;;;;;;;;;5097451;28;20544;-80
2023/09/29 13:59:26;;;;;;;6.17;5.00;;;;;;;;;;5097431;28;20451;-81
2023/09/29 14:01:53;;;;;;;4.40;3.00;;;;;;;;;;5097769;28;20467;-80
2023/09/29 14:04:20;;;;;;;5.83;4.63;;;;;;;;;;5097633;28;20430;-81
2023/09/29 14:06:47;;;;;;;5.43;3.37;;;;;;;;;;5097768;28;20889;-80
2023/09/29 14:09:14;;;;;;;4.10;3.37;;;;;;;;;;5096929;28;20439;-80
2023/09/29 14:11:43;;;;;;;5.73;3.60;;;;;;;;;;5097018;28;20559;-80
2023/09/29 14:14:10;;;;;;;3.50;3.20;;;;;;;;;;5097436;28;20453;-81
2023/09/29 14:16:37;;;;;;;3.40;2.57;;;;;;;;;;5097158;28;20445;-81
2023/09/29 14:19:04;;;;;;;4.30;3.13;;;;;;;;;;5096843;28;20814;-80
2023/09/29 14:21:33;;;;;;;4.40;2.80;;;;;;;;;;5096706;28;20475;-80
2023/09/29 14:24:00;;;;;;;4.50;3.80;;;;;;;;;;5097038;28;20471;-81
2023/09/29 14:26:27;;;;;;;6.97;3.63;;;;;;;;;;5096545;28;20459;-80
2023/09/29 14:28:56;;;;;;;3.97;3.10;;;;;;;;;;5096455;28;20447;-80
2023/09/29 14:31:23;;;;;;;5.20;3.80;;;;;;;;;;5096500;28;20474;-81
2023/09/29 14:33:50;;;;;;;4.80;3.90;;;;;;;;;;5096598;28;20455;-80
2023/09/29 14:36:18;;;;;;;5.67;3.40;;;;;;;;;;5096309;28;20556;-79
2023/09/29 14:38:45;;;;;;;4.47;3.50;;;;;;;;;;5096466;28;20458;-81
2023/09/29 14:41:12;;;;;;;5.00;3.60;;;;;;;;;;5096131;28;20992;-80